KRKS

Rock Springs-Sweetwater County Airport

Rock Springs, Wyoming, USA
METAR KRKS 220454Z AUTO 32009KT 10SM CLR 18/03 A3012 RMK AO2 SLPNO T01780028
Observed Flight Rules
Jun-22 @ 04:54 UTC (46 minutes ago) Visual Flight Rules
Wind Visibility Clouds
320° at 9 knots 10 miles
  • Clear skies
Temperatures Readings
Current 18°C / 64°F
Dewpoint 3°C / 37°F
Humidity 37%
Altimeter 30.12" Hg
Pressure 1020 hPa
Elevation 2060
METAR KRKS 220454Z AUTO 32009KT 10SM CLR 18/03 A3012 RMK AO2 SLPNO T01780028
Observed Flight Rules
Jun-22 @ 04:54 UTC
(46 minutes ago)
VFR
Wind Visibility
320° at 9 knots 10 miles
Clouds
  • Clear skies
Temperature Dewpoint
18°C / 64°F 3°C / 37°F
Humidity Altimeter Pressure
37% 30.12" Hg 1020 hPa